sensor_id;sensor_type;location;lat;lon;timestamp;P1;durP1;ratioP1;P2;durP2;ratioP2
5054;SDS011;13829;48.990;8.346;2023-05-10T00:00:42;0.77;;;0.70;;
5054;SDS011;13829;48.990;8.346;2023-05-10T00:03:09;1.53;;;0.90;;
5054;SDS011;13829;48.990;8.346;2023-05-10T00:05:39;0.70;;;0.60;;
5054;SDS011;13829;48.990;8.346;2023-05-10T00:08:07;1.40;;;0.90;;
5054;SDS011;13829;48.990;8.346;2023-05-10T00:10:34;3.83;;;1.00;;
5054;SDS011;13829;48.990;8.346;2023-05-10T00:13:02;2.10;;;0.70;;
5054;SDS011;13829;48.990;8.346;2023-05-10T00:15:31;1.00;;;0.90;;
5054;SDS011;13829;48.990;8.346;2023-05-10T00:17:59;0.77;;;0.70;;
5054;SDS011;13829;48.990;8.346;2023-05-10T00:20:26;2.87;;;0.93;;
5054;SDS011;13829;48.990;8.346;2023-05-10T00:22:53;0.90;;;0.63;;
5054;SDS011;13829;48.990;8.346;2023-05-10T00:25:21;2.00;;;0.70;;
5054;SDS011;13829;48.990;8.346;2023-05-10T00:27:48;1.13;;;0.83;;
5054;SDS011;13829;48.990;8.346;2023-05-10T00:30:20;1.37;;;0.87;;
5054;SDS011;13829;48.990;8.346;2023-05-10T00:32:49;2.50;;;0.87;;
5054;SDS011;13829;48.990;8.346;2023-05-10T00:35:16;1.37;;;0.70;;
5054;SDS011;13829;48.990;8.346;2023-05-10T00:37:43;2.77;;;1.10;;
5054;SDS011;13829;48.990;8.346;2023-05-10T00:40:13;0.90;;;0.90;;
5054;SDS011;13829;48.990;8.346;2023-05-10T00:42:45;1.20;;;0.77;;
5054;SDS011;13829;48.990;8.346;2023-05-10T00:45:12;2.00;;;1.00;;
5054;SDS011;13829;48.990;8.346;2023-05-10T00:47:39;1.10;;;0.80;;
5054;SDS011;13829;48.990;8.346;2023-05-10T00:50:07;1.83;;;1.07;;
5054;SDS011;13829;48.990;8.346;2023-05-10T00:52:38;1.10;;;0.90;;
5054;SDS011;13829;48.990;8.346;2023-05-10T00:55:07;4.03;;;1.10;;
5054;SDS011;13829;48.990;8.346;2023-05-10T00:57:37;2.73;;;0.73;;
5054;SDS011;13829;48.990;8.346;2023-05-10T01:00:06;0.80;;;0.80;;
5054;SDS011;13829;48.990;8.346;2023-05-10T01:02:34;4.20;;;1.07;;
5054;SDS011;13829;48.990;8.346;2023-05-10T01:05:02;1.23;;;1.13;;
5054;SDS011;13829;48.990;8.346;2023-05-10T01:07:33;3.13;;;1.00;;
5054;SDS011;13829;48.990;8.346;2023-05-10T01:13:43;1.30;;;1.07;;
5054;SDS011;13829;48.990;8.346;2023-05-10T01:16:19;2.03;;;1.00;;
5054;SDS011;13829;48.990;8.346;2023-05-10T01:18:46;2.10;;;1.27;;
5054;SDS011;13829;48.990;8.346;2023-05-10T01:21:17;3.07;;;1.30;;
5054;SDS011;13829;48.990;8.346;2023-05-10T01:24:09;2.60;;;1.20;;
5054;SDS011;13829;48.990;8.346;2023-05-10T01:27:34;1.30;;;1.20;;
5054;SDS011;13829;48.990;8.346;2023-05-10T01:30:33;1.77;;;1.27;;
5054;SDS011;13829;48.990;8.346;2023-05-10T01:33:31;1.43;;;1.33;;
5054;SDS011;13829;48.990;8.346;2023-05-10T01:36:05;3.53;;;1.63;;
5054;SDS011;13829;48.990;8.346;2023-05-10T01:38:46;1.40;;;1.30;;
5054;SDS011;13829;48.990;8.346;2023-05-10T01:41:18;1.30;;;1.20;;
5054;SDS011;13829;48.990;8.346;2023-05-10T01:43:55;2.37;;;1.30;;
5054;SDS011;13829;48.990;8.346;2023-05-10T01:46:31;1.50;;;1.40;;
5054;SDS011;13829;48.990;8.346;2023-05-10T01:49:06;10.63;;;1.50;;
5054;SDS011;13829;48.990;8.346;2023-05-10T01:51:38;3.00;;;1.83;;
5054;SDS011;13829;48.990;8.346;2023-05-10T01:54:11;2.10;;;1.43;;
5054;SDS011;13829;48.990;8.346;2023-05-10T01:56:43;2.33;;;2.00;;
5054;SDS011;13829;48.990;8.346;2023-05-10T01:59:15;3.57;;;1.97;;
5054;SDS011;13829;48.990;8.346;2023-05-10T02:01:45;2.33;;;1.80;;
5054;SDS011;13829;48.990;8.346;2023-05-10T02:04:16;2.50;;;2.00;;
5054;SDS011;13829;48.990;8.346;2023-05-10T02:06:47;3.17;;;2.03;;
5054;SDS011;13829;48.990;8.346;2023-05-10T02:09:17;2.63;;;2.10;;
5054;SDS011;13829;48.990;8.346;2023-05-10T02:11:47;3.50;;;2.37;;
5054;SDS011;13829;48.990;8.346;2023-05-10T02:14:16;2.50;;;2.23;;
5054;SDS011;13829;48.990;8.346;2023-05-10T02:16:44;3.37;;;2.70;;
5054;SDS011;13829;48.990;8.346;2023-05-10T02:19:16;2.93;;;2.20;;
5054;SDS011;13829;48.990;8.346;2023-05-10T02:21:46;2.70;;;2.50;;
5054;SDS011;13829;48.990;8.346;2023-05-10T02:24:13;2.40;;;2.20;;
5054;SDS011;13829;48.990;8.346;2023-05-10T02:26:42;2.37;;;2.17;;
5054;SDS011;13829;48.990;8.346;2023-05-10T02:29:13;2.50;;;2.30;;
5054;SDS011;13829;48.990;8.346;2023-05-10T02:31:42;5.50;;;2.60;;
5054;SDS011;13829;48.990;8.346;2023-05-10T02:34:10;3.40;;;2.90;;
5054;SDS011;13829;48.990;8.346;2023-05-10T02:36:40;4.60;;;2.50;;
5054;SDS011;13829;48.990;8.346;2023-05-10T02:39:08;3.50;;;2.67;;
5054;SDS011;13829;48.990;8.346;2023-05-10T02:41:38;3.00;;;2.70;;
5054;SDS011;13829;48.990;8.346;2023-05-10T02:44:07;6.77;;;3.07;;
5054;SDS011;13829;48.990;8.346;2023-05-10T02:46:35;3.40;;;3.10;;
5054;SDS011;13829;48.990;8.346;2023-05-10T02:49:02;3.87;;;3.00;;
5054;SDS011;13829;48.990;8.346;2023-05-10T02:51:31;3.53;;;3.23;;
5054;SDS011;13829;48.990;8.346;2023-05-10T02:54:03;2.90;;;2.70;;
5054;SDS011;13829;48.990;8.346;2023-05-10T02:56:42;2.80;;;2.60;;
5054;SDS011;13829;48.990;8.346;2023-05-10T02:59:16;3.40;;;3.10;;
5054;SDS011;13829;48.990;8.346;2023-05-10T03:01:43;4.20;;;2.63;;
5054;SDS011;13829;48.990;8.346;2023-05-10T03:04:10;3.57;;;3.07;;
5054;SDS011;13829;48.990;8.346;2023-05-10T03:06:38;3.50;;;3.20;;
5054;SDS011;13829;48.990;8.346;2023-05-10T03:09:07;3.13;;;2.87;;
5054;SDS011;13829;48.990;8.346;2023-05-10T03:11:39;3.07;;;2.77;;
5054;SDS011;13829;48.990;8.346;2023-05-10T03:14:21;4.27;;;3.33;;
5054;SDS011;13829;48.990;8.346;2023-05-10T03:17:06;3.40;;;3.10;;
5054;SDS011;13829;48.990;8.346;2023-05-10T03:19:46;2.97;;;2.77;;
5054;SDS011;13829;48.990;8.346;2023-05-10T03:22:21;3.83;;;3.07;;
5054;SDS011;13829;48.990;8.346;2023-05-10T03:24:55;3.97;;;3.13;;
5054;SDS011;13829;48.990;8.346;2023-05-10T03:27:23;3.43;;;3.13;;
5054;SDS011;13829;48.990;8.346;2023-05-10T03:29:53;3.57;;;2.93;;
5054;SDS011;13829;48.990;8.346;2023-05-10T03:32:22;4.67;;;3.50;;
5054;SDS011;13829;48.990;8.346;2023-05-10T03:34:49;4.40;;;3.37;;
5054;SDS011;13829;48.990;8.346;2023-05-10T03:37:16;3.27;;;2.97;;
5054;SDS011;13829;48.990;8.346;2023-05-10T03:39:43;3.20;;;2.90;;
5054;SDS011;13829;48.990;8.346;2023-05-10T03:42:11;3.47;;;2.73;;
5054;SDS011;13829;48.990;8.346;2023-05-10T03:44:38;4.17;;;3.77;;
5054;SDS011;13829;48.990;8.346;2023-05-10T03:47:05;4.27;;;3.23;;
5054;SDS011;13829;48.990;8.346;2023-05-10T03:49:32;3.27;;;2.83;;
5054;SDS011;13829;48.990;8.346;2023-05-10T03:51:59;2.97;;;2.77;;
5054;SDS011;13829;48.990;8.346;2023-05-10T03:54:26;3.30;;;3.00;;
5054;SDS011;13829;48.990;8.346;2023-05-10T03:56:53;2.70;;;2.23;;
5054;SDS011;13829;48.990;8.346;2023-05-10T03:59:21;3.27;;;2.53;;
5054;SDS011;13829;48.990;8.346;2023-05-10T04:01:48;2.80;;;2.50;;
5054;SDS011;13829;48.990;8.346;2023-05-10T04:04:15;3.60;;;2.70;;
5054;SDS011;13829;48.990;8.346;2023-05-10T04:06:43;3.43;;;2.50;;
5054;SDS011;13829;48.990;8.346;2023-05-10T04:09:10;2.47;;;2.03;;
5054;SDS011;13829;48.990;8.346;2023-05-10T04:11:37;4.53;;;2.30;;
5054;SDS011;13829;48.990;8.346;2023-05-10T04:14:04;2.80;;;2.40;;
5054;SDS011;13829;48.990;8.346;2023-05-10T04:16:32;2.77;;;1.90;;
5054;SDS011;13829;48.990;8.346;2023-05-10T04:18:59;2.30;;;2.10;;
5054;SDS011;13829;48.990;8.346;2023-05-10T04:21:26;2.97;;;2.00;;
5054;SDS011;13829;48.990;8.346;2023-05-10T04:23:53;2.33;;;2.13;;
5054;SDS011;13829;48.990;8.346;2023-05-10T04:26:20;3.43;;;2.20;;
5054;SDS011;13829;48.990;8.346;2023-05-10T04:28:47;2.87;;;2.07;;
5054;SDS011;13829;48.990;8.346;2023-05-10T04:31:14;2.43;;;2.23;;
5054;SDS011;13829;48.990;8.346;2023-05-10T04:33:42;2.43;;;2.23;;
5054;SDS011;13829;48.990;8.346;2023-05-10T04:36:10;2.90;;;2.40;;
5054;SDS011;13829;48.990;8.346;2023-05-10T04:38:37;2.07;;;1.90;;
5054;SDS011;13829;48.990;8.346;2023-05-10T04:41:05;2.40;;;2.20;;
5054;SDS011;13829;48.990;8.346;2023-05-10T04:43:33;3.43;;;2.30;;
5054;SDS011;13829;48.990;8.346;2023-05-10T04:46:01;2.30;;;2.10;;
5054;SDS011;13829;48.990;8.346;2023-05-10T04:48:28;2.50;;;2.30;;
5054;SDS011;13829;48.990;8.346;2023-05-10T04:50:56;4.53;;;2.50;;
5054;SDS011;13829;48.990;8.346;2023-05-10T04:53:23;2.40;;;2.20;;
5054;SDS011;13829;48.990;8.346;2023-05-10T04:55:50;4.57;;;2.40;;
5054;SDS011;13829;48.990;8.346;2023-05-10T04:58:17;2.73;;;2.40;;
5054;SDS011;13829;48.990;8.346;2023-05-10T05:00:44;4.13;;;2.70;;
5054;SDS011;13829;48.990;8.346;2023-05-10T05:03:11;2.73;;;2.43;;
5054;SDS011;13829;48.990;8.346;2023-05-10T05:05:38;2.57;;;2.37;;
5054;SDS011;13829;48.990;8.346;2023-05-10T05:08:06;3.47;;;2.50;;
5054;SDS011;13829;48.990;8.346;2023-05-10T05:10:33;3.10;;;2.80;;
5054;SDS011;13829;48.990;8.346;2023-05-10T05:13:00;4.50;;;3.27;;
5054;SDS011;13829;48.990;8.346;2023-05-10T05:15:27;3.57;;;3.00;;
5054;SDS011;13829;48.990;8.346;2023-05-10T05:17:54;4.07;;;2.87;;
5054;SDS011;13829;48.990;8.346;2023-05-10T05:20:21;4.37;;;3.10;;
5054;SDS011;13829;48.990;8.346;2023-05-10T05:22:48;4.27;;;3.17;;
5054;SDS011;13829;48.990;8.346;2023-05-10T05:25:17;3.47;;;3.17;;
5054;SDS011;13829;48.990;8.346;2023-05-10T05:27:44;6.20;;;3.10;;
5054;SDS011;13829;48.990;8.346;2023-05-10T05:30:11;3.63;;;2.87;;
5054;SDS011;13829;48.990;8.346;2023-05-10T05:32:38;3.10;;;2.77;;
5054;SDS011;13829;48.990;8.346;2023-05-10T05:35:05;3.23;;;2.90;;
5054;SDS011;13829;48.990;8.346;2023-05-10T05:37:33;4.23;;;2.57;;
5054;SDS011;13829;48.990;8.346;2023-05-10T05:40:00;2.77;;;2.57;;
5054;SDS011;13829;48.990;8.346;2023-05-10T05:42:29;4.20;;;2.70;;
5054;SDS011;13829;48.990;8.346;2023-05-10T05:44:57;3.63;;;2.40;;
5054;SDS011;13829;48.990;8.346;2023-05-10T05:47:25;2.87;;;2.23;;
5054;SDS011;13829;48.990;8.346;2023-05-10T05:49:51;3.53;;;2.40;;
5054;SDS011;13829;48.990;8.346;2023-05-10T05:52:18;1.97;;;1.80;;
5054;SDS011;13829;48.990;8.346;2023-05-10T05:54:46;2.50;;;2.30;;
5054;SDS011;13829;48.990;8.346;2023-05-10T05:57:13;2.27;;;1.97;;
5054;SDS011;13829;48.990;8.346;2023-05-10T05:59:41;2.90;;;2.20;;
5054;SDS011;13829;48.990;8.346;2023-05-10T06:02:08;7.23;;;2.17;;
5054;SDS011;13829;48.990;8.346;2023-05-10T06:04:36;3.30;;;1.90;;
5054;SDS011;13829;48.990;8.346;2023-05-10T06:07:03;4.97;;;1.70;;
5054;SDS011;13829;48.990;8.346;2023-05-10T06:09:30;1.97;;;1.73;;
5054;SDS011;13829;48.990;8.346;2023-05-10T06:11:57;3.23;;;1.77;;
5054;SDS011;13829;48.990;8.346;2023-05-10T06:14:23;3.50;;;1.90;;
5054;SDS011;13829;48.990;8.346;2023-05-10T06:16:52;4.23;;;1.97;;
5054;SDS011;13829;48.990;8.346;2023-05-10T06:19:19;2.10;;;1.80;;
5054;SDS011;13829;48.990;8.346;2023-05-10T06:21:46;2.83;;;1.90;;
5054;SDS011;13829;48.990;8.346;2023-05-10T06:24:13;2.70;;;2.00;;
5054;SDS011;13829;48.990;8.346;2023-05-10T06:26:40;2.57;;;1.63;;
5054;SDS011;13829;48.990;8.346;2023-05-10T06:29:06;4.90;;;2.23;;
5054;SDS011;13829;48.990;8.346;2023-05-10T06:31:33;3.60;;;2.00;;
5054;SDS011;13829;48.990;8.346;2023-05-10T06:34:02;3.03;;;1.97;;
5054;SDS011;13829;48.990;8.346;2023-05-10T06:36:29;2.60;;;1.90;;
5054;SDS011;13829;48.990;8.346;2023-05-10T06:38:56;2.27;;;1.77;;
5054;SDS011;13829;48.990;8.346;2023-05-10T06:41:23;4.43;;;2.17;;
5054;SDS011;13829;48.990;8.346;2023-05-10T06:43:50;2.77;;;2.13;;
5054;SDS011;13829;48.990;8.346;2023-05-10T06:46:17;2.77;;;1.67;;
5054;SDS011;13829;48.990;8.346;2023-05-10T06:48:44;1.50;;;1.30;;
5054;SDS011;13829;48.990;8.346;2023-05-10T06:51:12;2.03;;;1.40;;
5054;SDS011;13829;48.990;8.346;2023-05-10T06:53:39;2.30;;;1.60;;
5054;SDS011;13829;48.990;8.346;2023-05-10T06:56:06;1.70;;;1.30;;
5054;SDS011;13829;48.990;8.346;2023-05-10T06:58:33;2.90;;;1.60;;
5054;SDS011;13829;48.990;8.346;2023-05-10T07:01:03;3.27;;;1.80;;
5054;SDS011;13829;48.990;8.346;2023-05-10T07:03:30;1.60;;;1.50;;
5054;SDS011;13829;48.990;8.346;2023-05-10T07:06:00;3.03;;;1.90;;
5054;SDS011;13829;48.990;8.346;2023-05-10T07:08:30;2.37;;;1.90;;
5054;SDS011;13829;48.990;8.346;2023-05-10T07:11:00;1.63;;;1.53;;
5054;SDS011;13829;48.990;8.346;2023-05-10T07:13:29;3.60;;;1.63;;
5054;SDS011;13829;48.990;8.346;2023-05-10T07:15:57;1.50;;;1.40;;
5054;SDS011;13829;48.990;8.346;2023-05-10T07:18:24;2.83;;;1.20;;
5054;SDS011;13829;48.990;8.346;2023-05-10T07:20:51;2.20;;;1.30;;
5054;SDS011;13829;48.990;8.346;2023-05-10T07:23:18;1.20;;;1.10;;
5054;SDS011;13829;48.990;8.346;2023-05-10T07:25:47;1.13;;;1.03;;
5054;SDS011;13829;48.990;8.346;2023-05-10T07:28:16;1.73;;;1.27;;
5054;SDS011;13829;48.990;8.346;2023-05-10T07:30:44;2.23;;;1.30;;
5054;SDS011;13829;48.990;8.346;2023-05-10T07:33:12;2.03;;;1.00;;
5054;SDS011;13829;48.990;8.346;2023-05-10T07:35:40;1.70;;;1.03;;
5054;SDS011;13829;48.990;8.346;2023-05-10T07:38:07;1.37;;;0.80;;
5054;SDS011;13829;48.990;8.346;2023-05-10T07:40:36;1.47;;;0.90;;
5054;SDS011;13829;48.990;8.346;2023-05-10T07:43:04;1.63;;;0.87;;
5054;SDS011;13829;48.990;8.346;2023-05-10T07:45:31;1.57;;;1.20;;
5054;SDS011;13829;48.990;8.346;2023-05-10T07:47:59;1.97;;;1.20;;
5054;SDS011;13829;48.990;8.346;2023-05-10T07:50:26;2.17;;;1.00;;
5054;SDS011;13829;48.990;8.346;2023-05-10T07:52:53;3.43;;;1.30;;
5054;SDS011;13829;48.990;8.346;2023-05-10T07:55:20;2.40;;;1.20;;
5054;SDS011;13829;48.990;8.346;2023-05-10T07:57:47;1.07;;;1.00;;
5054;SDS011;13829;48.990;8.346;2023-05-10T08:00:17;2.40;;;1.00;;
5054;SDS011;13829;48.990;8.346;2023-05-10T08:02:46;2.07;;;1.00;;
5054;SDS011;13829;48.990;8.346;2023-05-10T08:05:14;1.37;;;1.07;;
5054;SDS011;13829;48.990;8.346;2023-05-10T08:07:41;1.20;;;1.10;;
5054;SDS011;13829;48.990;8.346;2023-05-10T08:10:08;1.10;;;0.90;;
5054;SDS011;13829;48.990;8.346;2023-05-10T08:12:37;2.55;;;1.20;;
5054;SDS011;13829;48.990;8.346;2023-05-10T08:15:04;2.28;;;1.05;;
5054;SDS011;13829;48.990;8.346;2023-05-10T08:17:34;2.25;;;1.00;;
5054;SDS011;13829;48.990;8.346;2023-05-10T08:20:01;0.90;;;0.80;;
5054;SDS011;13829;48.990;8.346;2023-05-10T08:22:28;1.70;;;0.82;;
5054;SDS011;13829;48.990;8.346;2023-05-10T08:24:55;0.70;;;0.70;;
5054;SDS011;13829;48.990;8.346;2023-05-10T08:27:22;2.25;;;1.20;;
5054;SDS011;13829;48.990;8.346;2023-05-10T08:29:49;1.23;;;0.75;;
5054;SDS011;13829;48.990;8.346;2023-05-10T08:32:16;3.08;;;0.93;;
5054;SDS011;13829;48.990;8.346;2023-05-10T08:34:44;0.80;;;0.60;;
5054;SDS011;13829;48.990;8.346;2023-05-10T08:37:11;0.52;;;0.52;;
5054;SDS011;13829;48.990;8.346;2023-05-10T08:39:38;2.60;;;0.82;;
5054;SDS011;13829;48.990;8.346;2023-05-10T08:42:05;1.00;;;0.80;;
5054;SDS011;13829;48.990;8.346;2023-05-10T08:44:34;2.17;;;0.75;;
5054;SDS011;13829;48.990;8.346;2023-05-10T08:47:04;0.65;;;0.65;;
5054;SDS011;13829;48.990;8.346;2023-05-10T08:49:32;1.50;;;0.70;;
5054;SDS011;13829;48.990;8.346;2023-05-10T08:52:03;1.10;;;0.88;;
5054;SDS011;13829;48.990;8.346;2023-05-10T08:54:32;1.10;;;0.80;;
5054;SDS011;13829;48.990;8.346;2023-05-10T08:57:00;2.38;;;0.85;;
5054;SDS011;13829;48.990;8.346;2023-05-10T08:59:28;1.75;;;0.80;;
5054;SDS011;13829;48.990;8.346;2023-05-10T09:01:55;1.55;;;0.60;;
5054;SDS011;13829;48.990;8.346;2023-05-10T09:04:24;1.98;;;1.00;;
5054;SDS011;13829;48.990;8.346;2023-05-10T09:06:51;3.10;;;1.23;;
5054;SDS011;13829;48.990;8.346;2023-05-10T09:09:20;3.90;;;1.33;;
5054;SDS011;13829;48.990;8.346;2023-05-10T09:11:49;3.30;;;1.10;;
5054;SDS011;13829;48.990;8.346;2023-05-10T09:14:17;0.82;;;0.70;;
5054;SDS011;13829;48.990;8.346;2023-05-10T09:16:46;2.30;;;1.00;;
5054;SDS011;13829;48.990;8.346;2023-05-10T09:19:13;1.67;;;1.00;;
5054;SDS011;13829;48.990;8.346;2023-05-10T09:21:41;3.13;;;1.00;;
5054;SDS011;13829;48.990;8.346;2023-05-10T09:24:08;2.40;;;0.90;;
5054;SDS011;13829;48.990;8.346;2023-05-10T09:26:39;2.03;;;0.90;;
5054;SDS011;13829;48.990;8.346;2023-05-10T09:29:13;3.83;;;0.93;;
5054;SDS011;13829;48.990;8.346;2023-05-10T09:31:43;1.10;;;0.90;;
5054;SDS011;13829;48.990;8.346;2023-05-10T09:34:15;1.70;;;0.80;;
5054;SDS011;13829;48.990;8.346;2023-05-10T09:36:51;1.52;;;0.70;;
5054;SDS011;13829;48.990;8.346;2023-05-10T09:39:19;1.00;;;0.90;;
5054;SDS011;13829;48.990;8.346;2023-05-10T09:41:48;2.10;;;1.10;;
5054;SDS011;13829;48.990;8.346;2023-05-10T09:44:16;1.27;;;0.80;;
5054;SDS011;13829;48.990;8.346;2023-05-10T09:46:48;2.30;;;0.90;;
5054;SDS011;13829;48.990;8.346;2023-05-10T09:49:17;3.53;;;1.02;;
5054;SDS011;13829;48.990;8.346;2023-05-10T09:51:44;1.27;;;0.90;;
5054;SDS011;13829;48.990;8.346;2023-05-10T09:54:12;1.50;;;1.08;;
5054;SDS011;13829;48.990;8.346;2023-05-10T09:56:40;4.32;;;1.17;;
5054;SDS011;13829;48.990;8.346;2023-05-10T09:59:10;1.90;;;1.20;;
5054;SDS011;13829;48.990;8.346;2023-05-10T10:01:38;2.25;;;1.00;;
5054;SDS011;13829;48.990;8.346;2023-05-10T10:04:08;1.92;;;1.00;;
5054;SDS011;13829;48.990;8.346;2023-05-10T10:06:36;1.77;;;0.95;;
5054;SDS011;13829;48.990;8.346;2023-05-10T10:09:03;2.63;;;1.10;;
5054;SDS011;13829;48.990;8.346;2023-05-10T10:11:31;2.17;;;1.10;;
5054;SDS011;13829;48.990;8.346;2023-05-10T10:14:00;2.10;;;1.10;;
5054;SDS011;13829;48.990;8.346;2023-05-10T10:16:29;4.00;;;1.05;;
5054;SDS011;13829;48.990;8.346;2023-05-10T10:18:58;0.98;;;0.88;;
5054;SDS011;13829;48.990;8.346;2023-05-10T10:21:25;6.55;;;1.05;;
5054;SDS011;13829;48.990;8.346;2023-05-10T10:23:52;1.60;;;1.20;;
5054;SDS011;13829;48.990;8.346;2023-05-10T10:26:20;4.78;;;1.30;;
5054;SDS011;13829;48.990;8.346;2023-05-10T10:28:50;1.92;;;1.38;;
5054;SDS011;13829;48.990;8.346;2023-05-10T10:31:34;2.17;;;1.33;;
5054;SDS011;13829;48.990;8.346;2023-05-10T10:34:16;3.05;;;1.52;;
5054;SDS011;13829;48.990;8.346;2023-05-10T10:36:52;2.13;;;1.50;;
5054;SDS011;13829;48.990;8.346;2023-05-10T10:39:22;3.25;;;1.77;;
5054;SDS011;13829;48.990;8.346;2023-05-10T10:41:51;2.15;;;1.70;;
5054;SDS011;13829;48.990;8.346;2023-05-10T10:44:23;2.35;;;1.67;;
5054;SDS011;13829;48.990;8.346;2023-05-10T10:47:23;4.68;;;2.05;;
5054;SDS011;13829;48.990;8.346;2023-05-10T10:50:02;2.88;;;2.25;;
5054;SDS011;13829;48.990;8.346;2023-05-10T10:52:32;4.10;;;2.30;;
5054;SDS011;13829;48.990;8.346;2023-05-10T10:55:01;2.40;;;1.63;;
5054;SDS011;13829;48.990;8.346;2023-05-10T10:57:31;4.50;;;2.00;;
5054;SDS011;13829;48.990;8.346;2023-05-10T11:00:18;5.25;;;1.70;;
5054;SDS011;13829;48.990;8.346;2023-05-10T11:02:58;3.38;;;1.95;;
5054;SDS011;13829;48.990;8.346;2023-05-10T11:05:38;1.58;;;1.48;;
5054;SDS011;13829;48.990;8.346;2023-05-10T11:08:17;4.05;;;1.98;;
5054;SDS011;13829;48.990;8.346;2023-05-10T11:11:03;3.05;;;1.80;;
5054;SDS011;13829;48.990;8.346;2023-05-10T11:13:39;2.88;;;1.70;;
5054;SDS011;13829;48.990;8.346;2023-05-10T11:16:11;5.28;;;1.42;;
5054;SDS011;13829;48.990;8.346;2023-05-10T11:18:47;2.80;;;1.38;;
5054;SDS011;13829;48.990;8.346;2023-05-10T11:21:27;4.10;;;1.80;;
5054;SDS011;13829;48.990;8.346;2023-05-10T11:23:55;2.83;;;1.65;;
5054;SDS011;13829;48.990;8.346;2023-05-10T11:26:23;4.22;;;1.42;;
5054;SDS011;13829;48.990;8.346;2023-05-10T11:28:52;3.58;;;1.27;;
5054;SDS011;13829;48.990;8.346;2023-05-10T11:31:21;3.50;;;1.33;;
5054;SDS011;13829;48.990;8.346;2023-05-10T11:33:53;5.57;;;1.23;;
5054;SDS011;13829;48.990;8.346;2023-05-10T11:36:23;1.67;;;0.90;;
5054;SDS011;13829;48.990;8.346;2023-05-10T11:38:52;2.78;;;1.00;;
5054;SDS011;13829;48.990;8.346;2023-05-10T11:41:22;3.08;;;1.15;;
5054;SDS011;13829;48.990;8.346;2023-05-10T11:43:51;1.63;;;1.10;;
5054;SDS011;13829;48.990;8.346;2023-05-10T11:46:21;4.30;;;1.48;;
5054;SDS011;13829;48.990;8.346;2023-05-10T11:48:54;2.20;;;0.90;;
5054;SDS011;13829;48.990;8.346;2023-05-10T11:51:26;3.88;;;0.80;;
5054;SDS011;13829;48.990;8.346;2023-05-10T11:53:54;1.52;;;0.60;;
5054;SDS011;13829;48.990;8.346;2023-05-10T11:56:23;2.20;;;0.88;;
5054;SDS011;13829;48.990;8.346;2023-05-10T11:58:54;1.90;;;0.95;;
5054;SDS011;13829;48.990;8.346;2023-05-10T12:01:23;5.20;;;1.30;;
5054;SDS011;13829;48.990;8.346;2023-05-10T12:03:54;2.35;;;1.45;;
5054;SDS011;13829;48.990;8.346;2023-05-10T12:06:25;2.20;;;1.10;;
5054;SDS011;13829;48.990;8.346;2023-05-10T12:08:55;1.55;;;1.10;;
5054;SDS011;13829;48.990;8.346;2023-05-10T12:11:24;2.47;;;1.13;;
5054;SDS011;13829;48.990;8.346;2023-05-10T12:13:53;1.27;;;0.90;;
5054;SDS011;13829;48.990;8.346;2023-05-10T12:16:22;2.30;;;1.30;;
5054;SDS011;13829;48.990;8.346;2023-05-10T12:18:52;1.80;;;1.17;;
5054;SDS011;13829;48.990;8.346;2023-05-10T12:21:23;3.00;;;1.00;;
5054;SDS011;13829;48.990;8.346;2023-05-10T12:23:51;1.92;;;1.20;;
5054;SDS011;13829;48.990;8.346;2023-05-10T12:26:21;2.15;;;1.00;;
5054;SDS011;13829;48.990;8.346;2023-05-10T12:28:49;5.38;;;1.20;;
5054;SDS011;13829;48.990;8.346;2023-05-10T12:31:16;2.95;;;1.02;;
5054;SDS011;13829;48.990;8.346;2023-05-10T12:33:43;1.60;;;0.93;;
5054;SDS011;13829;48.990;8.346;2023-05-10T12:36:14;2.50;;;1.17;;
5054;SDS011;13829;48.990;8.346;2023-05-10T12:38:43;2.60;;;1.20;;
5054;SDS011;13829;48.990;8.346;2023-05-10T12:41:13;1.60;;;1.05;;
5054;SDS011;13829;48.990;8.346;2023-05-10T12:43:42;8.35;;;1.27;;
5054;SDS011;13829;48.990;8.346;2023-05-10T12:46:10;2.47;;;1.50;;
5054;SDS011;13829;48.990;8.346;2023-05-10T12:48:40;2.40;;;1.52;;
5054;SDS011;13829;48.990;8.346;2023-05-10T12:51:08;2.78;;;1.48;;
5054;SDS011;13829;48.990;8.346;2023-05-10T12:53:39;1.67;;;1.00;;
5054;SDS011;13829;48.990;8.346;2023-05-10T12:56:06;3.20;;;1.00;;
5054;SDS011;13829;48.990;8.346;2023-05-10T12:58:33;2.22;;;1.13;;
5054;SDS011;13829;48.990;8.346;2023-05-10T13:01:00;3.15;;;1.23;;
5054;SDS011;13829;48.990;8.346;2023-05-10T13:03:29;1.88;;;0.88;;
5054;SDS011;13829;48.990;8.346;2023-05-10T13:05:56;2.58;;;1.00;;
5054;SDS011;13829;48.990;8.346;2023-05-10T13:08:23;1.33;;;0.90;;
5054;SDS011;13829;48.990;8.346;2023-05-10T13:10:51;3.00;;;0.90;;
5054;SDS011;13829;48.990;8.346;2023-05-10T13:13:18;2.88;;;0.93;;
5054;SDS011;13829;48.990;8.346;2023-05-10T13:15:45;4.18;;;1.02;;
5054;SDS011;13829;48.990;8.346;2023-05-10T13:18:12;2.08;;;0.90;;
5054;SDS011;13829;48.990;8.346;2023-05-10T13:20:39;1.38;;;0.82;;
5054;SDS011;13829;48.990;8.346;2023-05-10T13:23:08;2.22;;;0.95;;
5054;SDS011;13829;48.990;8.346;2023-05-10T13:25:35;1.90;;;1.00;;
5054;SDS011;13829;48.990;8.346;2023-05-10T13:28:03;2.58;;;1.00;;
5054;SDS011;13829;48.990;8.346;2023-05-10T13:30:30;0.80;;;0.80;;
5054;SDS011;13829;48.990;8.346;2023-05-10T13:32:57;1.33;;;0.93;;
5054;SDS011;13829;48.990;8.346;2023-05-10T13:35:24;1.70;;;0.90;;
5054;SDS011;13829;48.990;8.346;2023-05-10T13:37:51;1.50;;;0.70;;
5054;SDS011;13829;48.990;8.346;2023-05-10T13:40:21;2.47;;;0.80;;
5054;SDS011;13829;48.990;8.346;2023-05-10T13:42:48;1.83;;;1.00;;
5054;SDS011;13829;48.990;8.346;2023-05-10T13:45:16;1.85;;;1.10;;
5054;SDS011;13829;48.990;8.346;2023-05-10T13:47:43;3.33;;;1.00;;
5054;SDS011;13829;48.990;8.346;2023-05-10T13:50:10;1.02;;;0.70;;
5054;SDS011;13829;48.990;8.346;2023-05-10T13:52:37;1.70;;;0.80;;
5054;SDS011;13829;48.990;8.346;2023-05-10T13:55:04;3.00;;;1.15;;
5054;SDS011;13829;48.990;8.346;2023-05-10T13:57:32;4.00;;;1.48;;
5054;SDS011;13829;48.990;8.346;2023-05-10T14:00:00;1.40;;;0.70;;
5054;SDS011;13829;48.990;8.346;2023-05-10T14:02:29;1.98;;;0.98;;
5054;SDS011;13829;48.990;8.346;2023-05-10T14:04:58;1.13;;;0.80;;
5054;SDS011;13829;48.990;8.346;2023-05-10T14:07:25;2.55;;;0.73;;
5054;SDS011;13829;48.990;8.346;2023-05-10T14:09:52;1.13;;;0.60;;
5054;SDS011;13829;48.990;8.346;2023-05-10T14:12:19;3.03;;;0.80;;
5054;SDS011;13829;48.990;8.346;2023-05-10T14:14:46;2.17;;;0.80;;
5054;SDS011;13829;48.990;8.346;2023-05-10T14:17:12;1.42;;;0.60;;
5054;SDS011;13829;48.990;8.346;2023-05-10T14:19:41;1.20;;;0.90;;
5054;SDS011;13829;48.990;8.346;2023-05-10T14:22:08;2.15;;;1.00;;
5054;SDS011;13829;48.990;8.346;2023-05-10T14:24:35;2.72;;;1.17;;
5054;SDS011;13829;48.990;8.346;2023-05-10T14:27:04;4.95;;;0.88;;
5054;SDS011;13829;48.990;8.346;2023-05-10T14:29:32;0.85;;;0.70;;
5054;SDS011;13829;48.990;8.346;2023-05-10T14:31:58;1.75;;;1.08;;
5054;SDS011;13829;48.990;8.346;2023-05-10T14:34:25;2.63;;;0.90;;
5054;SDS011;13829;48.990;8.346;2023-05-10T14:36:54;2.08;;;0.70;;
5054;SDS011;13829;48.990;8.346;2023-05-10T14:39:21;1.00;;;0.60;;
5054;SDS011;13829;48.990;8.346;2023-05-10T14:41:48;5.68;;;0.95;;
5054;SDS011;13829;48.990;8.346;2023-05-10T14:44:16;1.95;;;0.85;;
5054;SDS011;13829;48.990;8.346;2023-05-10T14:46:43;2.35;;;0.75;;
5054;SDS011;13829;48.990;8.346;2023-05-10T14:49:10;1.35;;;0.70;;
5054;SDS011;13829;48.990;8.346;2023-05-10T14:51:37;1.15;;;0.75;;
5054;SDS011;13829;48.990;8.346;2023-05-10T14:54:05;2.45;;;0.82;;
5054;SDS011;13829;48.990;8.346;2023-05-10T14:56:32;2.28;;;0.90;;
5054;SDS011;13829;48.990;8.346;2023-05-10T14:58:59;7.03;;;4.32;;
5054;SDS011;13829;48.990;8.346;2023-05-10T15:01:26;1.88;;;1.20;;
5054;SDS011;13829;48.990;8.346;2023-05-10T15:03:53;2.28;;;0.93;;
5054;SDS011;13829;48.990;8.346;2023-05-10T15:06:22;3.40;;;0.60;;
5054;SDS011;13829;48.990;8.346;2023-05-10T15:08:56;0.88;;;0.70;;
5054;SDS011;13829;48.990;8.346;2023-05-10T15:11:24;1.95;;;0.65;;
5054;SDS011;13829;48.990;8.346;2023-05-10T15:13:51;1.70;;;1.08;;
5054;SDS011;13829;48.990;8.346;2023-05-10T15:16:18;1.52;;;0.80;;